Time;durP1;ratioP1;P1;durP2;ratioP2;P2;SDS_P1;SDS_P2;PMS_P1;PMS_P2;Temp;Humidity;BMP_temperature;BMP_pressure;BME280_temperature;BME280_humidity;BME280_pressure;Samples;Min_cycle;Max_cycle;Signal;HPM_P1;HPM_P2
2023/11/02 00:00:09;;;;;;;1.95;0.90;;;;;;;9.49;100.00;96852.38;6118504;19;20735;-76
2023/11/02 00:02:36;;;;;;;0.95;0.90;;;;;;;9.43;100.00;96859.53;6115318;19;20030;-76
2023/11/02 00:04:37;;;;;;;1.27;0.77;;;;;;;9.37;100.00;96863.94;6116150;19;20112;-76
2023/11/02 00:06:37;;;;;;;1.13;0.80;;;;;;;9.31;100.00;96868.34;6117358;19;20082;-76
2023/11/02 00:08:38;;;;;;;0.95;0.80;;;;;;;9.21;100.00;96861.72;6119406;19;20078;-76
2023/11/02 00:10:38;;;;;;;1.80;0.80;;;;;;;9.15;100.00;96866.88;6118916;19;20040;-76
2023/11/02 00:12:39;;;;;;;2.00;0.88;;;;;;;9.07;100.00;96861.84;6118075;19;20028;-76
2023/11/02 00:14:47;;;;;;;0.80;0.73;;;;;;;8.97;100.00;96858.78;6117555;19;20455;-76
2023/11/02 00:16:49;;;;;;;1.58;1.02;;;;;;;8.93;100.00;96858.00;6119092;19;20022;-76
2023/11/02 00:18:49;;;;;;;2.42;0.90;;;;;;;8.87;100.00;96862.41;6117104;19;20270;-76
2023/11/02 00:20:54;;;;;;;1.73;0.90;;;;;;;8.82;100.00;96868.34;6117315;19;20014;-76
2023/11/02 00:22:54;;;;;;;3.05;0.90;;;;;;;8.80;100.00;96861.66;6118120;19;20010;-76
2023/11/02 00:25:00;;;;;;;0.70;0.70;;;;;;;8.85;100.00;96845.47;6115492;19;20011;-76
2023/11/02 00:27:01;;;;;;;1.05;0.80;;;;;;;8.91;100.00;96832.03;6112148;19;20017;-76
2023/11/02 00:29:01;;;;;;;1.20;1.02;;;;;;;8.92;100.00;96822.56;6102247;19;20010;-76
2023/11/02 00:31:03;;;;;;;0.93;0.80;;;;;;;8.88;100.00;96825.34;6112036;19;20030;-76
2023/11/02 00:33:04;;;;;;;2.10;0.90;;;;;;;8.84;100.00;96832.84;6111137;19;20006;-76
2023/11/02 00:35:05;;;;;;;1.10;0.93;;;;;;;8.80;100.00;96839.59;6111332;19;20409;-76
2023/11/02 00:37:06;;;;;;;3.05;0.90;;;;;;;8.75;100.00;96829.00;6109755;19;20014;-77
2023/11/02 00:39:06;;;;;;;2.03;0.88;;;;;;;8.74;100.00;96811.69;6109487;19;20010;-76
2023/11/02 00:41:07;;;;;;;2.03;1.13;;;;;;;8.67;100.00;96809.75;6111971;19;20299;-76
2023/11/02 00:43:08;;;;;;;1.88;0.88;;;;;;;8.59;100.00;96816.50;6111723;19;20014;-76
2023/11/02 00:45:09;;;;;;;1.80;1.10;;;;;;;8.53;100.00;96814.59;6110337;19;20074;-76
2023/11/02 00:47:09;;;;;;;2.42;1.10;;;;;;;8.48;100.00;96804.00;6110251;19;20003;-77
2023/11/02 00:49:18;;;;;;;1.05;0.80;;;;;;;8.43;100.00;96808.75;6110355;19;20429;-76
2023/11/02 00:51:27;;;;;;;3.28;1.25;;;;;;;8.35;100.00;96798.94;6111675;19;20046;-76
2023/11/02 00:53:28;;;;;;;1.58;1.00;;;;;;;8.36;100.00;96799.75;6109576;19;20003;-76
2023/11/02 00:55:35;;;;;;;1.23;1.05;;;;;;;8.31;100.00;96787.16;6110013;19;20002;-76
2023/11/02 00:57:39;;;;;;;1.75;1.20;;;;;;;8.27;100.00;96785.59;6110886;19;20058;-77
2023/11/02 00:59:41;;;;;;;2.65;1.05;;;;;;;8.23;100.00;96782.09;6111018;19;20021;-76
2023/11/02 01:01:42;;;;;;;2.22;0.90;;;;;;;8.24;100.00;96770.66;6110834;19;20035;-77
2023/11/02 01:03:49;;;;;;;1.20;0.95;;;;;;;8.21;100.00;96765.19;6110644;19;20023;-77
2023/11/02 01:05:49;;;;;;;1.60;1.00;;;;;;;8.25;100.00;96761.22;6109622;19;20125;-77
2023/11/02 01:07:50;;;;;;;2.72;1.13;;;;;;;8.26;100.00;96764.75;6110797;19;20056;-76
2023/11/02 01:10:11;;;;;;;1.10;1.00;;;;;;;8.25;100.00;96752.16;6111034;19;20504;-76
2023/11/02 01:12:29;;;;;;;2.28;1.33;;;;;;;8.25;100.00;96750.19;6007085;19;2005665;-76
2023/11/02 01:14:49;;;;;;;1.80;1.20;;;;;;;8.34;100.00;96746.97;6108307;19;20006;-76
2023/11/02 01:16:50;;;;;;;1.75;1.08;;;;;;;8.35;100.00;96746.59;6110958;19;20495;-76
2023/11/02 01:18:50;;;;;;;2.08;1.08;;;;;;;8.37;100.00;96738.72;6110236;19;20002;-76
2023/11/02 01:21:06;;;;;;;2.97;1.30;;;;;;;8.37;100.00;96738.72;6111133;19;20020;-76
2023/11/02 01:23:07;;;;;;;1.65;1.02;;;;;;;8.34;100.00;96733.97;6108279;19;20026;-77
2023/11/02 01:25:14;;;;;;;2.72;1.20;;;;;;;8.33;100.00;96735.16;6107877;19;19999;-76
2023/11/02 01:27:27;;;;;;;2.08;1.30;;;;;;;8.27;100.00;96720.25;6111322;19;19999;-76
2023/11/02 01:29:29;;;;;;;1.27;0.98;;;;;;;8.29;100.00;96714.38;6103950;19;20010;-76
2023/11/02 01:31:35;;;;;;;2.60;1.20;;;;;;;8.24;100.00;96699.03;6103212;19;20495;-76
2023/11/02 01:33:36;;;;;;;1.75;1.10;;;;;;;8.25;100.00;96708.88;6102941;19;20352;-77
2023/11/02 01:35:44;;;;;;;1.48;1.00;;;;;;;8.22;100.00;96695.91;6102133;19;20545;-76
2023/11/02 01:37:45;;;;;;;1.00;0.90;;;;;;;8.16;100.00;96684.53;6102501;19;20010;-76
2023/11/02 01:40:03;;;;;;;3.15;1.20;;;;;;;8.18;100.00;96689.63;6103617;19;20027;-76
2023/11/02 01:42:15;;;;;;;1.77;1.00;;;;;;;8.18;100.00;96695.91;6099803;19;20090;-76
2023/11/02 01:44:22;;;;;;;3.28;1.25;;;;;;;8.17;100.00;96691.59;6102414;19;20077;-76
2023/11/02 01:46:38;;;;;;;1.17;0.80;;;;;;;8.13;100.00;96682.59;6101122;19;20336;-76
2023/11/02 01:48:47;;;;;;;1.15;0.80;;;;;;;8.11;100.00;96681.44;6102467;19;20007;-76
2023/11/02 01:50:58;;;;;;;1.38;0.85;;;;;;;8.13;100.00;96670.78;6102465;19;20447;-76
2023/11/02 01:53:17;;;;;;;3.60;1.40;;;;;;;8.11;100.00;96681.44;6101059;19;20003;-76
2023/11/02 01:55:28;;;;;;;1.70;1.02;;;;;;;8.05;100.00;96666.53;6102096;19;20471;-76
2023/11/02 01:57:47;;;;;;;1.98;1.10;;;;;;;8.00;100.00;96664.19;6103111;19;20010;-76
2023/11/02 02:00:06;;;;;;;3.55;1.00;;;;;;;7.94;100.00;96658.31;6102525;19;20007;-76
2023/11/02 02:02:40;;;;;;;1.33;1.08;;;;;;;7.88;100.00;96666.25;6100109;19;20048;-76
2023/11/02 02:05:00;;;;;;;1.05;0.90;;;;;;;7.86;100.00;96659.56;6100605;19;20013;-76
2023/11/02 02:07:33;;;;;;;2.22;1.00;;;;;;;7.74;100.00;96647.06;6101010;19;20007;-76
2023/11/02 02:09:49;;;;;;;3.90;0.82;;;;;;;7.71;100.00;96641.59;6103068;19;20026;-76
2023/11/02 02:11:58;;;;;;;2.00;1.05;;;;;;;7.60;100.00;96647.94;6100209;19;20081;-76
2023/11/02 02:13:59;;;;;;;4.20;1.02;;;;;;;7.62;100.00;96644.03;6102150;19;20006;-76
2023/11/02 02:16:23;;;;;;;1.88;0.95;;;;;;;7.57;100.00;96634.22;6101204;19;20012;-76
2023/11/02 02:18:30;;;;;;;4.78;1.00;;;;;;;7.54;100.00;96622.06;6000180;19;2006693;-76
2023/11/02 02:20:32;;;;;;;1.92;1.13;;;;;;;7.57;100.00;96623.19;6102209;19;20013;-76
2023/11/02 02:22:54;;;;;;;2.72;1.33;;;;;;;7.48;100.00;96620.13;6100354;19;20416;-76
2023/11/02 02:25:23;;;;;;;1.20;1.10;;;;;;;7.41;100.00;96620.94;6100971;19;20003;-76
2023/11/02 02:27:33;;;;;;;5.38;1.17;;;;;;;7.40;100.00;96607.59;6102387;19;20032;-76
2023/11/02 02:29:36;;;;;;;2.03;1.00;;;;;;;7.36;100.00;96604.06;6103825;19;20006;-76
2023/11/02 02:32:08;;;;;;;0.95;0.88;;;;;;;7.31;100.00;96588.78;6107389;19;20097;-76
2023/11/02 02:34:17;;;;;;;2.55;1.23;;;;;;;7.32;100.00;96601.34;6107012;19;20332;-77
2023/11/02 02:36:24;;;;;;;2.00;1.10;;;;;;;7.28;100.00;96592.31;6109233;19;20058;-76
2023/11/02 02:38:42;;;;;;;2.28;1.10;;;;;;;7.24;100.00;96597.06;6108865;19;20034;-76
2023/11/02 02:41:24;;;;;;;1.98;1.00;;;;;;;7.20;100.00;96599.03;6108819;19;20006;-76
2023/11/02 02:43:26;;;;;;;1.27;1.10;;;;;;;7.14;100.00;96573.16;6106590;19;20003;-77
2023/11/02 02:45:28;;;;;;;1.97;0.90;;;;;;;7.13;100.00;96574.34;6107153;19;20351;-76
2023/11/02 02:47:31;;;;;;;2.53;1.05;;;;;;;7.13;100.00;96577.88;6107429;19;20011;-76
2023/11/02 02:49:39;;;;;;;7.72;1.75;;;;;;;7.16;100.00;96568.81;6106121;19;20003;-76
2023/11/02 02:51:46;;;;;;;7.85;3.03;;;;;;;7.12;100.00;96562.56;6108353;19;20010;-76
2023/11/02 02:53:49;;;;;;;6.93;2.25;;;;;;;7.10;100.00;96547.63;6107038;19;20494;-77
2023/11/02 02:55:55;;;;;;;18.27;5.53;;;;;;;7.03;100.00;96541.00;6105187;19;20010;-77
2023/11/02 02:57:59;;;;;;;14.85;5.80;;;;;;;6.98;100.00;96544.16;6108510;19;20011;-76
2023/11/02 03:00:01;;;;;;;12.55;4.88;;;;;;;6.93;100.00;96538.31;6107258;19;20010;-76
2023/11/02 03:02:02;;;;;;;10.65;4.43;;;;;;;6.93;100.00;96543.78;6108301;19;20035;-76
2023/11/02 03:04:08;;;;;;;5.63;2.53;;;;;;;6.88;100.00;96536.00;6106525;19;20021;-76
2023/11/02 03:06:10;;;;;;;9.13;2.42;;;;;;;6.88;100.00;96541.50;6106096;19;19998;-76
2023/11/02 03:08:14;;;;;;;7.07;2.57;;;;;;;6.97;100.00;96539.09;6106565;19;20451;-76
2023/11/02 03:10:17;;;;;;;4.22;1.60;;;;;;;7.04;100.00;96537.06;6107487;19;20264;-76
2023/11/02 03:12:25;;;;;;;2.30;1.60;;;;;;;7.08;100.00;96539.78;6107351;19;20186;-76
2023/11/02 03:14:28;;;;;;;2.72;1.15;;;;;;;7.12;100.00;96529.56;6106285;19;20405;-76
2023/11/02 03:16:34;;;;;;;2.92;1.23;;;;;;;7.12;100.00;96540.56;6108857;19;20011;-76
2023/11/02 03:18:38;;;;;;;2.25;1.40;;;;;;;7.10;100.00;96534.66;6107934;19;20025;-76
2023/11/02 03:20:40;;;;;;;3.70;1.10;;;;;;;7.09;100.00;96535.84;6105729;19;20007;-76
2023/11/02 03:22:42;;;;;;;1.75;1.20;;;;;;;7.08;100.00;96531.53;6105125;19;20014;-76
2023/11/02 03:25:12;;;;;;;5.70;1.30;;;;;;;7.07;100.00;96532.72;6106428;19;20006;-76
2023/11/02 03:27:21;;;;;;;3.03;1.35;;;;;;;7.01;100.00;96526.88;6105728;19;20070;-76
2023/11/02 03:29:53;;;;;;;2.65;1.48;;;;;;;6.99;100.00;96520.22;6107632;19;20756;-76
2023/11/02 03:32:08;;;;;;;3.15;1.45;;;;;;;6.98;100.00;96515.91;6106009;19;20003;-76
2023/11/02 03:34:39;;;;;;;2.45;1.27;;;;;;;7.01;100.00;96506.84;6106748;19;20042;-76
2023/11/02 03:37:01;;;;;;;4.75;1.45;;;;;;;7.03;100.00;96512.72;6108136;19;20022;-76
2023/11/02 03:39:11;;;;;;;3.65;1.92;;;;;;;6.98;100.00;96500.19;6108464;19;20039;-76
2023/11/02 03:41:11;;;;;;;3.83;1.42;;;;;;;6.94;100.00;96512.38;6105402;19;20062;-76
2023/11/02 03:43:19;;;;;;;2.50;1.90;;;;;;;6.85;100.00;96492.78;6107501;19;19999;-76
2023/11/02 03:45:45;;;;;;;2.92;1.80;;;;;;;6.78;100.00;96479.09;6106208;19;20010;-76
2023/11/02 03:47:54;;;;;;;2.00;1.48;;;;;;;6.69;100.00;96452.03;6105536;19;20035;-76
2023/11/02 03:50:30;;;;;;;1.85;1.40;;;;;;;6.63;100.00;96437.97;6107285;19;20014;-76
2023/11/02 03:53:02;;;;;;;1.23;1.13;;;;;;;6.62;100.00;96435.59;6003837;19;2006386;-76
2023/11/02 03:55:21;;;;;;;3.67;1.50;;;;;;;6.60;100.00;96427.75;6106106;19;20101;-76
2023/11/02 03:57:36;;;;;;;2.83;1.50;;;;;;;6.58;100.00;96430.13;6105507;19;19999;-76
2023/11/02 03:59:39;;;;;;;2.20;1.35;;;;;;;6.55;100.00;96417.22;6106147;19;19998;-76
2023/11/02 04:01:59;;;;;;;6.57;1.90;;;;;;;6.53;100.00;96422.28;6108444;19;20038;-76
2023/11/02 04:04:04;;;;;;;3.28;1.88;;;;;;;6.46;100.00;96405.88;6112716;19;20454;-76
2023/11/02 04:06:08;;;;;;;;;;;;;;;6.42;100.00;96410.59;6112477;19;20003;-76
2023/11/02 04:08:16;;;;;;;2.25;1.25;;;;;;;6.40;100.00;96402.75;6111830;19;19906;-76
2023/11/02 04:10:23;;;;;;;3.22;1.45;;;;;;;6.37;100.00;96391.78;6111696;19;20009;-76
2023/11/02 04:13:12;;;;;;;2.33;1.50;;;;;;;6.40;100.00;96388.25;6112039;19;20002;-76
2023/11/02 04:15:15;;;;;;;4.57;1.50;;;;;;;6.42;100.00;96377.63;6107506;19;23376;-76
2023/11/02 04:17:15;;;;;;;2.00;1.10;;;;;;;6.46;100.00;96354.47;6112871;19;20002;-76
2023/11/02 04:19:16;;;;;;;4.80;1.70;;;;;;;6.50;100.00;96350.91;6111907;19;20002;-76
2023/11/02 04:21:16;;;;;;;2.58;1.10;;;;;;;6.63;100.00;96344.53;6111046;19;20011;-76
2023/11/02 04:23:18;;;;;;;2.80;1.55;;;;;;;6.69;100.00;96348.41;6112887;19;20010;-76
2023/11/02 04:25:19;;;;;;;5.90;1.50;;;;;;;6.84;100.00;96351.81;6111155;19;20455;-76
2023/11/02 04:27:19;;;;;;;4.45;2.08;;;;;;;6.96;100.00;96342.31;6112300;19;20224;-77
2023/11/02 04:29:20;;;;;;;4.32;1.27;;;;;;;7.12;100.00;96339.81;6112729;19;20040;-76
2023/11/02 04:31:20;;;;;;;2.00;1.10;;;;;;;7.23;100.00;96326.75;6108441;19;20466;-76
2023/11/02 04:33:21;;;;;;;2.00;1.02;;;;;;;7.25;100.00;96332.59;6110485;19;20006;-77
2023/11/02 04:35:21;;;;;;;1.30;1.20;;;;;;;7.26;100.00;96323.16;6111702;19;20014;-76
2023/11/02 04:37:21;;;;;;;2.47;1.02;;;;;;;7.31;100.00;96317.22;6112068;19;20015;-76
2023/11/02 04:39:22;;;;;;;3.08;1.42;;;;;;;7.31;100.00;96308.19;6111740;19;20007;-76
2023/11/02 04:41:23;;;;;;;2.35;1.55;;;;;;;7.24;100.00;96295.28;6112648;19;20003;-76
2023/11/02 04:43:23;;;;;;;2.80;1.77;;;;;;;7.20;100.00;96291.81;6111112;19;20487;-76
2023/11/02 04:45:23;;;;;;;4.13;1.20;;;;;;;7.12;100.00;96287.56;6110779;19;20009;-76
2023/11/02 04:47:24;;;;;;;2.65;1.45;;;;;;;7.02;100.00;96269.97;6109416;19;20006;-76
2023/11/02 04:49:24;;;;;;;4.03;1.50;;;;;;;7.01;100.00;96282.16;6112015;19;20049;-76
2023/11/02 04:51:24;;;;;;;4.43;1.80;;;;;;;6.99;100.00;96281.00;6110170;19;20422;-76
2023/11/02 04:53:25;;;;;;;2.42;1.42;;;;;;;6.97;100.00;96277.91;6111992;19;20465;-76
2023/11/02 04:55:25;;;;;;;3.97;1.30;;;;;;;6.99;100.00;96281.78;6110084;19;19998;-76
2023/11/02 04:57:26;;;;;;;3.47;1.30;;;;;;;7.04;100.00;96281.34;6111205;19;20043;-76
2023/11/02 04:59:28;;;;;;;4.03;1.73;;;;;;;7.08;100.00;96283.28;6110683;19;20003;-76
2023/11/02 05:01:29;;;;;;;3.17;1.38;;;;;;;7.06;100.00;96278.19;6112092;19;20006;-76
2023/11/02 05:03:29;;;;;;;3.83;1.33;;;;;;;7.12;100.00;96279.31;6110917;19;20784;-76
2023/11/02 05:05:29;;;;;;;1.75;1.27;;;;;;;7.13;100.00;96275.38;6108157;19;20497;-76
2023/11/02 05:07:30;;;;;;;3.85;1.30;;;;;;;7.15;100.00;96270.25;6109945;19;20006;-76
2023/11/02 05:09:30;;;;;;;6.95;1.52;;;;;;;7.19;100.00;96265.47;6111818;19;20018;-76
2023/11/02 05:11:31;;;;;;;1.27;1.10;;;;;;;7.29;100.00;96277.56;6109420;19;20014;-76
2023/11/02 05:13:31;;;;;;;2.15;1.15;;;;;;;7.39;100.00;96279.41;6110559;19;19999;-76
2023/11/02 05:15:31;;;;;;;4.03;1.15;;;;;;;7.52;100.00;96265.88;6108053;19;20006;-76
2023/11/02 05:17:32;;;;;;;1.42;1.10;;;;;;;7.66;100.00;96273.22;6111659;19;20007;-76
2023/11/02 05:19:32;;;;;;;4.70;1.02;;;;;;;7.65;100.00;96261.41;6109389;19;20007;-76
2023/11/02 05:21:32;;;;;;;2.65;1.20;;;;;;;7.71;100.00;96254.28;6110447;19;20473;-76
2023/11/02 05:23:33;;;;;;;2.25;1.10;;;;;;;7.66;100.00;96259.44;6108978;19;20073;-76
2023/11/02 05:25:33;;;;;;;1.17;1.00;;;;;;;7.58;100.00;96258.75;6109695;19;20010;-76
2023/11/02 05:27:33;;;;;;;3.65;1.13;;;;;;;7.53;100.00;96246.25;6111596;19;19999;-77
2023/11/02 05:29:34;;;;;;;2.38;1.20;;;;;;;7.50;100.00;96241.53;6100500;19;20014;-76
2023/11/02 05:31:36;;;;;;;2.83;1.10;;;;;;;7.45;100.00;96236.50;6109491;19;20015;-76
2023/11/02 05:33:37;;;;;;;1.70;1.23;;;;;;;7.40;100.00;96231.47;6109832;19;19994;-76
2023/11/02 05:35:37;;;;;;;1.63;1.08;;;;;;;7.37;100.00;96226.78;6109843;19;20351;-76
2023/11/02 05:37:37;;;;;;;1.38;0.98;;;;;;;7.30;100.00;96219.41;6110492;19;20331;-76
2023/11/02 05:39:38;;;;;;;3.95;1.52;;;;;;;7.31;100.00;96223.69;6109218;19;20401;-76
2023/11/02 05:41:38;;;;;;;1.83;1.17;;;;;;;7.29;100.00;96217.84;6110034;19;20011;-76
2023/11/02 05:43:38;;;;;;;1.67;1.30;;;;;;;7.26;100.00;96215.13;6110546;19;20013;-76
2023/11/02 05:45:39;;;;;;;2.55;1.05;;;;;;;7.25;100.00;96219.06;6109157;19;20010;-76
2023/11/02 05:47:39;;;;;;;1.92;1.30;;;;;;;7.23;100.00;96219.47;6107140;19;20010;-76
2023/11/02 05:49:39;;;;;;;4.85;1.45;;;;;;;7.22;100.00;96208.88;6110175;19;20570;-76
2023/11/02 05:51:40;;;;;;;2.70;1.00;;;;;;;7.23;100.00;96200.22;6107342;19;20011;-76
2023/11/02 05:53:40;;;;;;;2.63;1.83;;;;;;;7.21;100.00;96196.34;6109701;19;20007;-76
2023/11/02 05:55:41;;;;;;;4.40;2.33;;;;;;;7.20;100.00;96192.81;6108460;19;20466;-76
2023/11/02 05:57:41;;;;;;;2.03;1.00;;;;;;;7.20;100.00;96189.25;6108200;19;20361;-76
2023/11/02 05:59:41;;;;;;;2.17;1.10;;;;;;;7.19;100.00;96199.47;6108033;19;20046;-76
2023/11/02 06:01:44;;;;;;;4.28;1.02;;;;;;;7.18;100.00;96194.38;6107326;19;20006;-76
2023/11/02 06:03:46;;;;;;;2.13;1.17;;;;;;;7.17;100.00;96187.31;6109074;19;20582;-76
2023/11/02 06:05:46;;;;;;;5.43;1.27;;;;;;;7.15;100.00;96168.50;6106284;19;20376;-76
2023/11/02 06:07:47;;;;;;;1.52;1.00;;;;;;;7.14;100.00;96166.94;6109223;19;20014;-76
2023/11/02 06:09:47;;;;;;;4.03;1.40;;;;;;;7.14;100.00;96158.69;6109559;19;20014;-76
2023/11/02 06:11:47;;;;;;;1.33;1.00;;;;;;;7.16;100.00;96159.06;6108238;19;20015;-76
2023/11/02 06:13:48;;;;;;;2.90;1.23;;;;;;;7.22;100.00;96171.16;6108987;19;20007;-76
2023/11/02 06:15:48;;;;;;;2.83;1.40;;;;;;;7.27;100.00;96161.66;6109475;19;20018;-76
2023/11/02 06:17:49;;;;;;;1.88;0.95;;;;;;;7.34;100.00;96169.81;6108574;19;20036;-76
2023/11/02 06:19:49;;;;;;;0.93;0.82;;;;;;;7.42;100.00;96162.25;6108235;19;20317;-76
2023/11/02 06:21:50;;;;;;;1.75;0.98;;;;;;;7.43;100.00;96153.59;6107985;19;20344;-76
2023/11/02 06:23:50;;;;;;;1.20;0.90;;;;;;;7.62;100.00;96159.66;6106982;19;20034;-76
2023/11/02 06:25:50;;;;;;;5.55;1.33;;;;;;;7.65;100.00;96158.81;6106038;19;20479;-76
2023/11/02 06:27:51;;;;;;;4.82;1.20;;;;;;;7.77;100.00;96153.50;6107762;19;20010;-76
2023/11/02 06:29:53;;;;;;;2.30;1.20;;;;;;;7.95;100.00;96160.75;6101289;19;20010;-76
2023/11/02 06:31:53;;;;;;;1.97;1.10;;;;;;;8.09;100.00;96149.47;6100623;19;20010;-76
2023/11/02 06:33:54;;;;;;;2.75;0.75;;;;;;;8.18;100.00;96145.00;6099287;19;20009;-76
2023/11/02 06:35:56;;;;;;;1.85;0.98;;;;;;;8.24;100.00;96139.78;6097538;19;20018;-76
2023/11/02 06:37:58;;;;;;;2.47;1.10;;;;;;;8.35;100.00;96134.91;6098507;19;20014;-76
2023/11/02 06:39:59;;;;;;;2.13;1.00;;;;;;;8.42;100.00;96139.50;6099513;19;20014;-76
2023/11/02 06:42:00;;;;;;;1.88;0.90;;;;;;;8.42;100.00;96128.50;6098749;19;20020;-76
2023/11/02 06:44:00;;;;;;;0.93;0.80;;;;;;;8.47;100.00;96133.53;6100291;19;20007;-76
2023/11/02 06:46:02;;;;;;;3.35;0.90;;;;;;;8.47;100.00;96116.22;6095755;19;20010;-76
2023/11/02 06:48:03;;;;;;;1.92;0.93;;;;;;;8.59;100.00;96110.84;6099151;19;20015;-76
2023/11/02 06:50:04;;;;;;;1.42;0.80;;;;;;;8.54;100.00;96122.38;6098028;19;20007;-76
2023/11/02 06:52:05;;;;;;;0.80;0.70;;;;;;;8.55;100.00;96117.66;6100547;19;20344;-76
2023/11/02 06:54:05;;;;;;;3.78;0.90;;;;;;;8.56;100.00;96114.47;6100053;19;20007;-76
2023/11/02 06:56:06;;;;;;;2.38;0.80;;;;;;;8.59;100.00;96121.88;6100872;19;20328;-76
2023/11/02 06:58:07;;;;;;;1.60;0.90;;;;;;;8.62;100.00;96107.28;6101112;19;20529;-76
2023/11/02 07:00:09;;;;;;;4.25;1.10;;;;;;;8.61;100.00;96114.00;6098703;19;20131;-76
2023/11/02 07:02:10;;;;;;;1.50;0.80;;;;;;;8.62;100.00;96123.03;6100804;19;20414;-76
2023/11/02 07:04:10;;;;;;;0.70;0.70;;;;;;;8.59;100.00;96101.81;6099625;19;20006;-76
2023/11/02 07:06:11;;;;;;;1.73;1.00;;;;;;;8.61;100.00;96099.44;6100767;19;20549;-76
2023/11/02 07:08:11;;;;;;;0.70;0.70;;;;;;;8.56;100.00;96106.19;6100452;19;20403;-76
2023/11/02 07:10:14;;;;;;;1.95;1.38;;;;;;;8.53;100.00;96109.03;6099593;19;20107;-76
2023/11/02 07:12:14;;;;;;;;;;;;;;;8.57;100.00;96123.50;6101316;19;20402;-76
2023/11/02 07:14:15;;;;;;;1.55;0.70;;;;;;;8.66;100.00;96115.47;6099743;19;19948;-76
2023/11/02 07:16:15;;;;;;;1.77;0.73;;;;;;;8.67;100.00;96101.25;6100680;19;20003;-76
2023/11/02 07:18:16;;;;;;;2.38;0.70;;;;;;;8.63;100.00;96106.06;6100406;19;20338;-76
2023/11/02 07:20:16;;;;;;;1.10;0.70;;;;;;;8.59;100.00;96104.56;6100488;19;20022;-76
2023/11/02 07:22:16;;;;;;;0.75;0.75;;;;;;;8.62;100.00;96107.28;6099093;19;20014;-76
2023/11/02 07:24:17;;;;;;;8.13;1.23;;;;;;;8.65;100.00;96100.13;6099279;19;20048;-76
2023/11/02 07:26:17;;;;;;;1.25;0.75;;;;;;;8.68;100.00;96102.03;6100906;19;20369;-76
2023/11/02 07:28:17;;;;;;;1.58;0.80;;;;;;;8.69;100.00;96098.09;6099548;19;19995;-76
2023/11/02 07:30:18;;;;;;;0.93;0.73;;;;;;;8.74;100.00;96103.09;6107306;19;20020;-76
2023/11/02 07:32:19;;;;;;;1.23;0.70;;;;;;;8.83;100.00;96103.31;6106997;19;20312;-76
2023/11/02 07:34:20;;;;;;;2.88;0.90;;;;;;;8.81;100.00;96088.41;6106692;19;20002;-76
2023/11/02 07:36:20;;;;;;;1.48;1.25;;;;;;;8.79;100.00;96083.31;6109817;19;21199;-76
2023/11/02 07:38:21;;;;;;;1.75;1.10;;;;;;;8.82;100.00;96085.22;6111487;19;20097;-76
2023/11/02 07:40:21;;;;;;;2.13;1.02;;;;;;;8.86;100.00;96083.19;6113209;19;20022;-76
2023/11/02 07:42:21;;;;;;;1.83;1.45;;;;;;;8.98;100.00;96082.53;6112617;19;20033;-75
2023/11/02 07:44:22;;;;;;;1.27;0.82;;;;;;;9.00;100.00;96069.09;6111624;19;20023;-76
2023/11/02 07:46:22;;;;;;;2.70;1.00;;;;;;;9.03;100.00;96064.72;6113085;19;20016;-76
2023/11/02 07:48:23;;;;;;;1.20;0.70;;;;;;;9.00;100.00;96055.28;6112854;19;20006;-76
2023/11/02 07:50:23;;;;;;;0.75;0.70;;;;;;;9.09;100.00;96057.47;6112674;19;20009;-75
2023/11/02 07:52:24;;;;;;;1.80;0.88;;;;;;;9.09;100.00;96043.69;6111850;19;20006;-76
2023/11/02 07:54:24;;;;;;;0.88;0.80;;;;;;;9.15;100.00;96032.94;6110768;19;20470;-76
2023/11/02 07:56:25;;;;;;;2.40;1.05;;;;;;;9.10;100.00;96045.25;6112047;19;20013;-76
2023/11/02 07:58:26;;;;;;;1.20;0.80;;;;;;;9.07;100.00;96048.06;6112699;19;20945;-76
2023/11/02 08:00:26;;;;;;;2.00;1.60;;;;;;;9.07;100.00;96061.88;6112706;19;20127;-76
2023/11/02 08:02:26;;;;;;;1.40;0.70;;;;;;;9.08;100.00;96068.94;6112454;19;20007;-76
2023/11/02 08:04:27;;;;;;;1.52;1.00;;;;;;;9.08;100.00;96064.19;6111121;19;20591;-76
2023/11/02 08:06:27;;;;;;;1.92;1.17;;;;;;;9.12;100.00;96055.84;6112258;19;20005;-76
2023/11/02 08:08:27;;;;;;;1.13;0.82;;;;;;;9.19;100.00;96050.97;6111865;19;20006;-75
2023/11/02 08:10:30;;;;;;;1.80;0.80;;;;;;;9.23;100.00;96057.16;6110155;19;20010;-76
2023/11/02 08:12:32;;;;;;;1.85;0.90;;;;;;;9.25;100.00;96053.97;6109833;19;19999;-76
2023/11/02 08:14:33;;;;;;;1.55;0.90;;;;;;;9.23;100.00;96053.63;6112132;19;20003;-76
2023/11/02 08:16:34;;;;;;;1.23;0.80;;;;;;;9.32;100.00;96031.75;6112089;19;20054;-76
2023/11/02 08:18:35;;;;;;;3.13;0.80;;;;;;;9.43;100.00;96021.25;6111881;19;20337;-76
2023/11/02 08:20:35;;;;;;;1.15;0.93;;;;;;;9.47;100.00;96024.69;6110502;19;19999;-76
2023/11/02 08:22:36;;;;;;;3.83;1.10;;;;;;;9.48;100.00;96011.69;6112398;19;20479;-75
2023/11/02 08:24:37;;;;;;;2.90;0.80;;;;;;;9.48;100.00;95995.88;6108530;19;20019;-75
2023/11/02 08:26:38;;;;;;;4.25;0.82;;;;;;;9.51;100.00;96005.28;6111669;19;20107;-76
2023/11/02 08:28:38;;;;;;;3.15;1.15;;;;;;;9.46;100.00;96001.06;6111718;19;20022;-75
2023/11/02 08:30:38;;;;;;;1.52;0.88;;;;;;;9.48;100.00;96006.94;6111517;19;20078;-76
2023/11/02 08:32:39;;;;;;;1.67;0.93;;;;;;;9.49;100.00;96002.97;6110858;19;20062;-75
2023/11/02 08:34:43;;;;;;;0.95;0.73;;;;;;;9.45;100.00;96004.25;6111197;19;20006;-75
2023/11/02 08:36:43;;;;;;;2.38;0.90;;;;;;;9.39;100.00;95994.94;6112009;19;20618;-76
2023/11/02 08:38:43;;;;;;;2.60;1.05;;;;;;;9.43;100.00;96004.69;6112470;19;20034;-76
2023/11/02 08:40:44;;;;;;;3.88;1.15;;;;;;;9.40;100.00;95990.97;6111252;19;20039;-75
2023/11/02 08:42:44;;;;;;;2.08;0.85;;;;;;;9.37;100.00;95992.63;6111997;19;20003;-76
2023/11/02 08:44:45;;;;;;;2.28;1.10;;;;;;;9.41;100.00;95982.25;6110058;19;20006;-75
2023/11/02 08:46:45;;;;;;;2.33;1.10;;;;;;;9.50;100.00;95976.13;6111196;19;20002;-76
2023/11/02 08:48:52;;;;;;;1.73;0.98;;;;;;;9.52;100.00;95974.50;6109467;19;19998;-75
2023/11/02 08:50:52;;;;;;;2.42;1.05;;;;;;;9.54;100.00;95969.31;6111750;19;20483;-76
2023/11/02 08:52:52;;;;;;;2.13;0.90;;;;;;;9.60;100.00;95963.28;6110519;19;20014;-76
2023/11/02 08:54:53;;;;;;;2.08;0.80;;;;;;;9.66;100.00;95969.84;6110018;19;20015;-75
2023/11/02 08:56:53;;;;;;;2.70;0.90;;;;;;;9.65;100.00;95948.97;6110668;19;20002;-76
2023/11/02 08:58:54;;;;;;;1.15;0.85;;;;;;;9.62;100.00;95958.13;6111357;19;20066;-75
2023/11/02 09:00:54;;;;;;;0.77;0.75;;;;;;;9.73;100.00;95947.56;6110699;19;20014;-76
2023/11/02 09:02:55;;;;;;;1.65;0.90;;;;;;;9.75;100.00;95948.69;6110769;19;20396;-76
2023/11/02 09:04:55;;;;;;;1.48;0.80;;;;;;;9.78;100.00;95938.78;6109011;19;20324;-75
2023/11/02 09:06:56;;;;;;;4.15;1.10;;;;;;;9.76;100.00;95928.16;6110677;19;20688;-76
2023/11/02 09:08:56;;;;;;;1.88;1.10;;;;;;;9.77;100.00;95915.91;6109956;19;20006;-76
2023/11/02 09:10:57;;;;;;;1.63;1.05;;;;;;;9.75;100.00;95912.78;6110953;19;20422;-76
2023/11/02 09:12:58;;;;;;;0.93;0.85;;;;;;;9.80;100.00;95912.25;6109482;19;20451;-75
2023/11/02 09:14:58;;;;;;;1.88;1.25;;;;;;;9.82;100.00;95914.59;6109391;19;20011;-75
2023/11/02 09:17:00;;;;;;;1.08;0.90;;;;;;;9.82;100.00;95892.50;6109895;19;20063;-76
2023/11/02 09:19:01;;;;;;;1.90;1.38;;;;;;;9.80;100.00;95887.41;6110715;19;20072;-75
2023/11/02 09:21:03;;;;;;;1.60;1.10;;;;;;;9.77;100.00;95887.53;6110281;19;20035;-76
2023/11/02 09:23:04;;;;;;;2.08;1.10;;;;;;;9.80;100.00;95884.66;6109498;19;20010;-75
2023/11/02 09:25:05;;;;;;;5.45;1.35;;;;;;;9.80;100.00;95889.41;6108970;19;20017;-76
2023/11/02 09:27:05;;;;;;;1.40;1.00;;;;;;;9.84;100.00;95865.97;6111257;19;20006;-75
2023/11/02 09:29:06;;;;;;;9.02;1.35;;;;;;;9.91;100.00;95862.25;6109525;19;20401;-76
2023/11/02 09:31:10;;;;;;;4.45;1.20;;;;;;;9.94;100.00;95844.84;6109843;19;20321;-75
2023/11/02 09:33:11;;;;;;;17.75;1.80;;;;;;;9.97;100.00;95862.50;6107072;19;20006;-75
2023/11/02 09:35:11;;;;;;;4.50;1.63;;;;;;;9.96;100.00;95852.66;6110105;19;20011;-76
2023/11/02 09:37:12;;;;;;;2.88;1.13;;;;;;;10.05;100.00;95852.81;6110173;19;20343;-76
2023/11/02 09:39:12;;;;;;;4.63;1.45;;;;;;;10.02;100.00;95824.09;6110670;19;20006;-76
2023/11/02 09:41:12;;;;;;;14.10;1.60;;;;;;;10.05;100.00;95772.69;6110499;19;20226;-76
2023/11/02 09:43:13;;;;;;;4.72;1.33;;;;;;;10.06;100.00;95747.38;6110130;19;20017;-75
2023/11/02 09:45:14;;;;;;;7.28;1.65;;;;;;;10.11;100.00;95768.19;6108966;19;20357;-75